createdAt,value
2019-04-23T00:02:04.049Z,57.73
2019-04-23T00:04:36.735Z,57.61
2019-04-23T00:07:30.016Z,57.41
2019-04-23T00:09:38.980Z,57.17
2019-04-23T00:12:23.922Z,57.36
2019-04-23T00:14:54.781Z,57.25
2019-04-23T00:17:24.967Z,57.35
2019-04-23T00:19:50.349Z,57.94
2019-04-23T00:22:28.815Z,58.04
2019-04-23T00:25:25.315Z,58.27
2019-04-23T00:27:35.561Z,57.99
2019-04-23T00:30:07.372Z,58.20
2019-04-23T00:32:36.282Z,58.15
2019-04-23T00:35:06.457Z,58.51
2019-04-23T00:37:37.323Z,58.76
2019-04-23T00:40:13.875Z,58.86
2019-04-23T00:42:41.609Z,57.93
2019-04-23T00:45:14.086Z,57.94
2019-04-23T00:47:45.693Z,57.82
2019-04-23T00:52:57.688Z,57.85
2019-04-23T00:55:33.052Z,57.98
2019-04-23T00:58:06.224Z,58.26
2019-04-23T01:03:10.250Z,58.39
2019-04-23T01:05:39.245Z,58.68
2019-04-23T01:08:16.708Z,58.74
2019-04-23T01:10:43.294Z,58.62
2019-04-23T01:13:17.446Z,58.69
2019-04-23T01:15:48.146Z,58.76
2019-04-23T01:18:32.210Z,58.78
2019-04-23T01:20:52.994Z,58.92
2019-04-23T01:23:13.882Z,59.26
2019-04-23T01:25:54.556Z,59.10
2019-04-23T01:28:50.296Z,59.14
2019-04-23T01:31:18.288Z,59.67
2019-04-23T01:33:46.168Z,59.44
2019-04-23T01:36:21.776Z,59.43
2019-04-23T01:38:56.075Z,59.27
2019-04-23T01:41:25.242Z,59.43
2019-04-23T01:44:15.631Z,59.78
2019-04-23T01:46:21.414Z,59.52
2019-04-23T01:48:52.272Z,59.22
2019-04-23T01:51:26.507Z,59.64
2019-04-23T01:53:58.220Z,59.36
2019-04-23T01:56:30.847Z,59.96
2019-04-23T02:01:32.807Z,59.89
2019-04-23T02:06:34.953Z,60.05
2019-04-23T02:09:05.027Z,60.16
2019-04-23T02:11:35.746Z,60.18
2019-04-23T02:14:09.644Z,59.80
2019-04-23T02:19:18.233Z,60.35
2019-04-23T02:24:29.906Z,60.79
2019-04-23T02:27:00.006Z,60.74
2019-04-23T02:32:24.289Z,60.88
2019-04-23T02:34:57.809Z,61.10
2019-04-23T02:37:19.389Z,61.47
2019-04-23T02:39:49.563Z,61.59
2019-04-23T02:44:39.003Z,62.13
2019-04-23T02:47:34.854Z,61.94
2019-04-23T02:50:01.511Z,62.09
2019-04-23T02:57:24.677Z,62.06
2019-04-23T03:02:37.109Z,61.91
2019-04-23T03:05:15.160Z,62.24
2019-04-23T03:10:02.883Z,61.96
2019-04-23T03:12:43.346Z,62.33
2019-04-23T03:15:21.356Z,62.07
2019-04-23T03:20:57.400Z,61.86
2019-04-23T03:23:29.054Z,61.84
2019-04-23T03:25:46.097Z,61.87
2019-04-23T03:28:27.293Z,62.33
2019-04-23T03:38:40.679Z,61.96
2019-04-23T03:41:06.963Z,61.99
2019-04-23T03:43:33.334Z,62.35
2019-04-23T03:51:03.126Z,62.12
2019-04-23T03:53:47.981Z,62.44
2019-04-23T04:01:11.937Z,63.28
2019-04-23T04:06:39.519Z,62.70
2019-04-23T04:08:53.097Z,63.06
2019-04-23T04:11:14.221Z,62.92
2019-04-23T04:13:51.029Z,63.00
2019-04-23T04:16:42.859Z,63.00
2019-04-23T04:18:55.271Z,63.01
2019-04-23T04:21:29.878Z,62.73
2019-04-23T04:24:05.057Z,62.94
2019-04-23T04:26:41.993Z,62.82
2019-04-23T04:29:00.632Z,62.32
2019-04-23T04:31:42.856Z,62.42
2019-04-23T04:36:58.558Z,62.10
2019-04-23T04:39:19.761Z,62.30
2019-04-23T04:41:31.251Z,62.13
2019-04-23T04:46:44.196Z,61.70
2019-04-23T04:51:51.847Z,61.82
2019-04-23T04:56:44.920Z,61.69
2019-04-23T05:01:52.147Z,61.98
2019-04-23T05:04:30.791Z,62.06
2019-04-23T05:09:38.098Z,62.21
2019-04-23T05:12:17.175Z,62.06
2019-04-23T05:19:45.777Z,62.27
2019-04-23T05:24:36.678Z,62.21
2019-04-23T05:27:15.559Z,62.37
2019-04-23T05:29:39.094Z,62.27
2019-04-23T05:32:28.815Z,62.47
2019-04-23T05:34:40.162Z,62.80
2019-04-23T05:37:15.988Z,62.45
2019-04-23T05:39:45.459Z,62.14
2019-04-23T05:42:31.953Z,61.52
2019-04-23T05:44:52.772Z,61.12
2019-04-23T05:47:20.318Z,60.64
2019-04-23T05:49:57.258Z,60.50
2019-04-23T05:52:27.852Z,59.69
2019-04-23T05:55:04.074Z,59.83
2019-04-23T05:57:28.578Z,59.46
2019-04-23T06:00:04.134Z,59.31
2019-04-23T06:02:35.866Z,59.59
2019-04-23T06:05:05.998Z,59.14
2019-04-23T06:07:35.886Z,58.45
2019-04-23T06:10:04.710Z,58.88
2019-04-23T06:12:42.272Z,57.57
2019-04-23T06:15:11.538Z,56.84
2019-04-23T06:17:37.727Z,52.94
2019-04-23T06:25:31.011Z,48.17
2019-04-23T06:27:48.290Z,47.63
2019-04-23T06:30:41.905Z,47.57
2019-04-23T06:32:58.021Z,43.86
2019-04-23T06:35:23.822Z,43.14
2019-04-23T06:38:13.637Z,46.47
2019-04-23T06:40:26.659Z,44.37
2019-04-23T06:43:01.008Z,44.38
2019-04-23T06:45:28.867Z,43.30
2019-04-23T06:48:08.802Z,45.04
2019-04-23T06:50:36.947Z,44.47
2019-04-23T06:52:58.872Z,42.95
2019-04-23T06:55:35.736Z,42.73
2019-04-23T06:58:15.073Z,43.45
2019-04-23T07:00:42.050Z,43.72
2019-04-23T07:03:15.061Z,45.12
2019-04-23T07:06:20.765Z,46.34
2019-04-23T07:16:19.256Z,46.15
2019-04-23T07:18:50.361Z,45.91
2019-04-23T07:21:23.529Z,45.59
2019-04-23T07:24:08.543Z,45.40
2019-04-23T07:28:53.165Z,45.09
2019-04-23T07:31:29.655Z,44.94
2019-04-23T07:33:59.639Z,44.20
2019-04-23T07:36:31.053Z,43.60
2019-04-23T07:39:21.920Z,43.64
2019-04-23T07:44:33.129Z,45.05
2019-04-23T07:47:10.410Z,43.21
2019-04-23T07:49:23.628Z,42.97
2019-04-23T07:52:03.565Z,43.38
2019-04-23T07:54:32.217Z,42.72
2019-04-23T07:57:02.886Z,42.39
2019-04-23T07:59:33.535Z,42.58
2019-04-23T08:02:08.032Z,42.50
2019-04-23T08:04:36.352Z,42.08
2019-04-23T08:07:08.242Z,42.63
2019-04-23T08:09:43.961Z,41.99
2019-04-23T08:12:13.314Z,41.55
2019-04-23T08:14:47.962Z,41.39
2019-04-23T08:17:10.840Z,42.59
2019-04-23T08:19:49.615Z,41.94
2019-04-23T08:25:01.102Z,42.32
2019-04-23T08:27:24.200Z,42.58
2019-04-23T08:29:55.671Z,43.41
2019-04-23T08:32:21.601Z,44.31
2019-04-23T08:35:03.151Z,43.97
2019-04-23T08:40:01.525Z,44.52
2019-04-23T08:48:04.268Z,41.96
2019-04-23T08:50:27.639Z,42.76
2019-04-23T08:53:05.226Z,42.83
2019-04-23T08:55:38.782Z,42.47
2019-04-23T08:58:06.234Z,42.72
2019-04-23T09:00:49.905Z,42.54
2019-04-23T09:05:50.563Z,41.85
2019-04-23T09:10:50.254Z,41.92
2019-04-23T09:13:48.265Z,41.90
2019-04-23T09:15:49.939Z,41.69
2019-04-23T09:18:23.100Z,42.09
2019-04-23T09:20:49.760Z,42.31
2019-04-23T09:23:30.873Z,42.26
2019-04-23T09:25:56.212Z,41.71
2019-04-23T09:28:36.552Z,41.55
2019-04-23T09:31:14.233Z,41.48
2019-04-23T09:41:31.184Z,41.05
2019-04-23T09:44:51.032Z,41.10
2019-04-23T09:47:08.267Z,41.58
2019-04-23T09:49:34.903Z,41.04
2019-04-23T09:52:08.024Z,40.94
2019-04-23T09:54:42.192Z,40.44
2019-04-23T09:57:03.842Z,40.81
2019-04-23T10:02:01.552Z,40.60
2019-04-23T10:04:28.131Z,40.50
2019-04-23T10:07:01.568Z,39.93
2019-04-23T10:09:18.843Z,40.71
2019-04-23T10:11:51.057Z,40.66
2019-04-23T10:14:21.079Z,40.10
2019-04-23T10:16:51.648Z,40.28
2019-04-23T10:19:22.615Z,40.57
2019-04-23T10:21:53.342Z,40.37
2019-04-23T10:24:23.505Z,40.97
2019-04-23T10:26:53.281Z,39.89
2019-04-23T10:29:27.816Z,39.26
2019-04-23T10:31:57.845Z,40.15
2019-04-23T10:34:29.244Z,39.40
2019-04-23T10:36:59.622Z,39.42
2019-04-23T10:39:35.318Z,39.26
2019-04-23T10:42:03.324Z,38.64
2019-04-23T10:44:50.108Z,38.79
2019-04-23T10:48:12.354Z,38.95
2019-04-23T10:50:46.518Z,39.41
2019-04-23T10:58:35.147Z,38.26
2019-04-23T11:00:59.918Z,39.23
2019-04-23T11:06:06.752Z,38.69
2019-04-23T11:08:33.062Z,39.34
2019-04-23T11:11:11.324Z,38.76
2019-04-23T11:13:56.558Z,39.18
2019-04-23T11:16:47.303Z,39.92
2019-04-23T11:18:53.599Z,40.66
2019-04-23T11:23:49.451Z,40.03
2019-04-23T11:26:26.418Z,40.62
2019-04-23T11:28:42.924Z,41.64
2019-04-23T11:31:30.913Z,41.27
2019-04-23T11:34:01.519Z,41.99
2019-04-23T11:36:49.875Z,42.20
2019-04-23T11:41:32.355Z,42.65
2019-04-23T11:43:55.315Z,42.30
2019-04-23T11:49:22.437Z,42.30
2019-04-23T11:51:54.730Z,42.96
2019-04-23T11:54:07.314Z,42.99
2019-04-23T11:57:14.191Z,42.61
2019-04-23T11:59:29.626Z,42.26
2019-04-23T12:04:28.440Z,43.09
2019-04-23T12:09:48.801Z,43.76
2019-04-23T12:12:17.157Z,44.51
2019-04-23T12:14:47.632Z,44.01
2019-04-23T12:17:33.173Z,43.96
2019-04-23T12:25:07.647Z,43.92
2019-04-23T12:27:31.441Z,43.95
2019-04-23T12:30:03.132Z,44.21
2019-04-23T12:35:08.353Z,43.80
2019-04-23T12:40:19.865Z,44.08
2019-04-23T12:58:12.508Z,43.88
2019-04-23T13:00:36.982Z,43.42
2019-04-23T13:03:02.904Z,43.77
2019-04-23T13:05:33.976Z,43.84
2019-04-23T13:08:15.800Z,44.20
2019-04-23T13:10:40.993Z,44.80
2019-04-23T13:13:32.402Z,45.06
2019-04-23T13:18:17.492Z,44.65
2019-04-23T13:20:41.511Z,44.73
2019-04-23T13:23:22.284Z,44.60
2019-04-23T13:26:16.054Z,44.40
2019-04-23T13:28:38.783Z,44.58
2019-04-23T13:31:12.708Z,44.66
2019-04-23T13:33:47.215Z,44.85
2019-04-23T13:48:47.211Z,45.01
2019-04-23T13:53:51.358Z,44.88
2019-04-23T13:57:13.011Z,44.73
2019-04-23T13:59:03.611Z,44.58
2019-04-23T14:01:35.891Z,44.42
2019-04-23T14:04:14.187Z,43.81
2019-04-23T14:11:51.836Z,44.06
2019-04-23T14:14:32.733Z,44.53
2019-04-23T14:16:50.949Z,44.31
2019-04-23T14:19:13.007Z,44.30
2019-04-23T14:21:51.807Z,44.10
2019-04-23T14:24:45.553Z,44.23
2019-04-23T14:26:52.536Z,43.95
2019-04-23T14:29:31.807Z,44.53
2019-04-23T14:32:07.271Z,44.18
2019-04-23T14:34:24.901Z,44.34
2019-04-23T14:42:09.892Z,44.13
2019-04-23T14:44:31.579Z,43.04
2019-04-23T14:47:18.375Z,43.95
2019-04-23T14:50:12.909Z,44.24
2019-04-23T14:52:21.672Z,43.50
2019-04-23T15:02:38.251Z,43.31
2019-04-23T15:05:11.609Z,43.29
2019-04-23T15:07:39.793Z,42.92
2019-04-23T15:10:22.004Z,42.86
2019-04-23T15:15:13.467Z,43.42
2019-04-23T15:17:40.602Z,43.22
2019-04-23T15:20:17.802Z,43.07
2019-04-23T15:23:02.734Z,42.55
2019-04-23T15:28:05.352Z,42.59
2019-04-23T15:30:17.547Z,42.64
2019-04-23T15:33:03.768Z,43.13
2019-04-23T15:40:25.154Z,42.85
2019-04-23T15:43:05.822Z,42.91
2019-04-23T15:45:29.794Z,42.96
2019-04-23T15:48:08.502Z,42.62
2019-04-23T15:53:07.788Z,42.95
2019-04-23T15:55:44.184Z,43.50
2019-04-23T15:58:14.508Z,42.75
2019-04-23T16:00:46.887Z,43.28
2019-04-23T16:02:50.789Z,43.04
2019-04-23T16:05:27.743Z,43.89
2019-04-23T16:08:18.057Z,44.10
2019-04-23T16:11:10.445Z,43.94
2019-04-23T16:13:31.244Z,44.26
2019-04-23T16:16:20.648Z,44.36
2019-04-23T16:18:41.868Z,44.39
2019-04-23T16:21:20.393Z,44.53
2019-04-23T16:24:01.103Z,44.32
2019-04-23T16:26:23.066Z,44.47
2019-04-23T16:29:07.315Z,44.32
2019-04-23T16:31:35.526Z,44.68
2019-04-23T16:34:13.598Z,44.59
2019-04-23T16:36:38.634Z,44.85
2019-04-23T16:39:12.031Z,45.14
2019-04-23T16:41:51.176Z,45.37
2019-04-23T16:46:54.134Z,45.19
2019-04-23T16:49:19.174Z,45.48
2019-04-23T16:52:03.642Z,45.46
2019-04-23T16:54:29.197Z,45.55
2019-04-23T16:59:18.426Z,46.41
2019-04-23T17:01:59.629Z,46.17
2019-04-23T17:04:24.741Z,46.40
2019-04-23T17:06:58.262Z,46.85
2019-04-23T17:09:33.642Z,46.64
2019-04-23T17:12:05.987Z,47.24
2019-04-23T17:14:27.549Z,47.39
2019-04-23T17:16:53.454Z,47.57
2019-04-23T17:22:04.557Z,47.97
2019-04-23T17:24:30.874Z,48.46
2019-04-23T17:29:41.527Z,48.81
2019-04-23T17:32:11.686Z,48.97
2019-04-23T17:35:01.597Z,49.25
2019-04-23T17:40:12.205Z,50.02
2019-04-23T17:42:50.947Z,50.11
2019-04-23T17:48:04.118Z,50.58
2019-04-23T17:50:34.051Z,50.86
2019-04-23T17:53:03.435Z,50.84
2019-04-23T17:55:57.054Z,51.04
2019-04-23T17:58:07.569Z,51.63
2019-04-23T18:00:40.559Z,51.54
2019-04-23T18:05:40.075Z,52.29
2019-04-23T18:08:15.369Z,52.61
2019-04-23T18:10:48.706Z,52.90
2019-04-23T18:13:26.216Z,53.20
2019-04-23T18:15:57.191Z,53.28
2019-04-23T18:18:33.144Z,53.44
2019-04-23T18:21:14.215Z,53.44
2019-04-23T18:23:42.352Z,53.99
2019-04-23T18:26:20.790Z,54.32
2019-04-23T18:28:58.661Z,54.78
2019-04-23T18:31:44.809Z,54.76
2019-04-23T18:36:33.633Z,55.40
2019-04-23T18:39:06.806Z,55.54
2019-04-23T18:41:43.309Z,55.81
2019-04-23T18:44:19.234Z,56.23
2019-04-23T18:46:42.101Z,56.71
2019-04-23T18:49:11.381Z,56.90
2019-04-23T18:51:58.087Z,56.88
2019-04-23T18:54:14.718Z,57.29
2019-04-23T18:57:09.961Z,57.52
2019-04-23T19:02:08.044Z,58.31
2019-04-23T19:05:03.465Z,58.74
2019-04-23T19:07:31.729Z,59.08
2019-04-23T19:12:41.416Z,59.80
2019-04-23T19:15:21.581Z,60.20
2019-04-23T19:20:26.117Z,61.07
2019-04-23T19:22:53.085Z,61.11
2019-04-23T19:25:23.007Z,61.58
2019-04-23T19:27:59.289Z,61.52
2019-04-23T19:30:41.491Z,61.35
2019-04-23T19:33:18.296Z,61.61
2019-04-23T19:35:58.960Z,61.17
2019-04-23T19:38:13.642Z,61.17
2019-04-23T19:40:51.886Z,60.80
2019-04-23T19:43:19.936Z,60.72
2019-04-23T19:45:55.715Z,60.54
2019-04-23T19:53:32.183Z,60.64
2019-04-23T19:56:03.898Z,60.15
2019-04-23T19:58:32.495Z,58.03
2019-04-23T20:01:10.257Z,56.83
2019-04-23T20:06:06.337Z,56.23
2019-04-23T20:08:48.602Z,56.62
2019-04-23T20:11:04.573Z,56.98
2019-04-23T20:13:47.265Z,57.31
2019-04-23T20:16:10.989Z,57.97
2019-04-23T20:21:04.135Z,59.30
2019-04-23T20:29:11.860Z,60.30
2019-04-23T20:34:24.132Z,60.62
2019-04-23T20:39:32.745Z,60.62
2019-04-23T20:49:42.648Z,61.21
2019-04-23T20:52:06.233Z,61.59
2019-04-23T20:57:31.628Z,62.05
2019-04-23T21:05:24.196Z,63.09
2019-04-23T21:10:27.230Z,64.33
2019-04-23T21:15:29.086Z,64.89
2019-04-23T21:23:04.670Z,66.22
2019-04-23T21:25:30.486Z,66.54
2019-04-23T21:38:55.826Z,67.55
2019-04-23T21:51:41.965Z,67.98
2019-04-23T21:54:02.085Z,68.06
2019-04-23T21:56:35.348Z,68.08
2019-04-23T22:06:41.353Z,68.37
2019-04-23T22:09:12.419Z,68.18
2019-04-23T22:16:50.333Z,68.54
2019-04-23T22:19:14.958Z,68.84
2019-04-23T22:21:47.260Z,68.96
2019-04-23T22:26:45.419Z,69.30
2019-04-23T22:34:34.098Z,70.09
2019-04-23T22:37:07.584Z,70.10
2019-04-23T22:39:21.942Z,70.04
2019-04-23T22:44:48.607Z,70.27
2019-04-23T22:47:04.310Z,70.27
2019-04-23T22:49:41.695Z,70.43
2019-04-23T22:52:09.442Z,70.61
2019-04-23T22:54:41.935Z,70.83
2019-04-23T22:57:04.747Z,70.77
2019-04-23T23:02:29.843Z,71.27
2019-04-23T23:05:10.044Z,71.39
2019-04-23T23:07:28.875Z,71.65
2019-04-23T23:10:12.543Z,71.60
2019-04-23T23:12:43.722Z,71.81
2019-04-23T23:17:48.383Z,72.07
2019-04-23T23:20:20.910Z,72.25
2019-04-23T23:22:46.074Z,72.35
2019-04-23T23:25:11.428Z,72.46
2019-04-23T23:27:39.701Z,72.51
2019-04-23T23:30:13.670Z,72.80
2019-04-23T23:32:51.771Z,72.89
2019-04-23T23:37:41.838Z,73.23
2019-04-23T23:40:21.925Z,73.01
2019-04-23T23:42:56.229Z,73.11
2019-04-23T23:48:18.620Z,73.00
2019-04-23T23:51:07.937Z,73.12
2019-04-23T23:53:29.869Z,72.97
2019-04-23T23:56:05.437Z,72.75
2019-04-23T23:58:40.742Z,72.86
